createdAt,value
2019-04-22T00:00:51.383Z,9.84
2019-04-22T00:03:33.022Z,9.77
2019-04-22T00:06:17.755Z,9.74
2019-04-22T00:08:56.053Z,9.69
2019-04-22T00:11:28.802Z,9.64
2019-04-22T00:14:01.257Z,9.59
2019-04-22T00:16:37.812Z,9.53
2019-04-22T00:19:15.438Z,9.50
2019-04-22T00:21:50.185Z,9.46
2019-04-22T00:24:20.130Z,9.41
2019-04-22T00:26:50.288Z,9.35
2019-04-22T00:29:44.818Z,9.31
2019-04-22T00:32:00.021Z,9.25
2019-04-22T00:34:35.929Z,9.21
2019-04-22T00:37:08.283Z,9.15
2019-04-22T00:39:50.259Z,9.09
2019-04-22T00:42:22.624Z,9.04
2019-04-22T00:44:51.750Z,9.00
2019-04-22T00:47:29.180Z,8.95
2019-04-22T00:50:14.462Z,8.88
2019-04-22T00:52:35.786Z,8.82
2019-04-22T00:57:42.489Z,8.74
2019-04-22T01:00:18.241Z,8.67
2019-04-22T01:02:49.781Z,8.61
2019-04-22T01:05:21.434Z,8.60
2019-04-22T01:07:57.026Z,8.54
2019-04-22T01:10:39.033Z,8.50
2019-04-22T01:13:06.656Z,8.49
2019-04-22T01:16:09.423Z,8.44
2019-04-22T01:18:15.710Z,8.39
2019-04-22T01:21:06.940Z,8.36
2019-04-22T01:23:27.847Z,8.33
2019-04-22T01:25:56.968Z,8.27
2019-04-22T01:28:30.392Z,8.25
2019-04-22T01:30:55.714Z,8.22
2019-04-22T01:33:33.427Z,8.17
2019-04-22T01:36:19.740Z,8.12
2019-04-22T01:38:58.169Z,8.09
2019-04-22T01:41:33.631Z,8.06
2019-04-22T01:44:19.419Z,8.01
2019-04-22T01:46:36.674Z,7.95
2019-04-22T01:49:18.921Z,7.95
2019-04-22T01:56:52.629Z,7.82
2019-04-22T01:59:23.989Z,7.75
2019-04-22T02:02:02.591Z,7.66
2019-04-22T02:04:37.618Z,7.64
2019-04-22T02:07:10.771Z,7.57
2019-04-22T02:09:46.650Z,7.54
2019-04-22T02:12:20.000Z,7.47
2019-04-22T02:14:53.916Z,7.47
2019-04-22T02:17:26.480Z,7.43
2019-04-22T02:19:57.583Z,7.37
2019-04-22T02:22:42.867Z,7.31
2019-04-22T02:25:09.463Z,7.26
2019-04-22T02:27:39.050Z,7.19
2019-04-22T02:30:06.083Z,11.09
2019-04-22T02:35:36.622Z,13.55
2019-04-22T02:37:54.514Z,12.12
2019-04-22T02:40:44.393Z,11.20
2019-04-22T02:43:14.540Z,10.61
2019-04-22T02:45:56.838Z,10.15
2019-04-22T02:48:26.682Z,9.84
2019-04-22T02:50:55.791Z,9.57
2019-04-22T02:53:58.545Z,9.31
2019-04-22T02:56:04.535Z,9.07
2019-04-22T02:58:37.424Z,8.86
2019-04-22T03:03:51.864Z,8.49
2019-04-22T03:07:05.443Z,8.32
2019-04-22T03:08:45.665Z,8.16
2019-04-22T03:11:18.656Z,8.01
2019-04-22T03:19:05.898Z,7.62
2019-04-22T03:21:33.775Z,7.54
2019-04-22T03:24:18.017Z,7.43
2019-04-22T03:29:41.458Z,7.26
2019-04-22T03:39:45.623Z,6.96
2019-04-22T03:45:02.855Z,10.80
2019-04-22T03:49:58.390Z,13.69
2019-04-22T03:52:20.692Z,12.15
2019-04-22T03:55:09.143Z,11.20
2019-04-22T04:00:08.482Z,10.11
2019-04-22T04:02:55.968Z,9.80
2019-04-22T04:05:17.039Z,9.53
2019-04-22T04:10:30.611Z,9.07
2019-04-22T04:15:23.568Z,8.67
2019-04-22T04:17:54.899Z,8.50
2019-04-22T04:28:36.082Z,7.96
2019-04-22T04:30:48.085Z,7.89
2019-04-22T04:33:25.019Z,7.80
2019-04-22T04:35:54.533Z,7.72
2019-04-22T04:38:28.954Z,7.64
2019-04-22T04:41:10.869Z,7.58
2019-04-22T04:43:46.612Z,7.53
2019-04-22T04:46:13.841Z,7.48
2019-04-22T04:48:56.162Z,7.44
2019-04-22T04:51:31.015Z,7.40
2019-04-22T04:53:58.240Z,11.20
2019-04-22T04:56:33.976Z,15.22
2019-04-22T04:59:05.267Z,14.06
2019-04-22T05:01:42.400Z,12.63
2019-04-22T05:04:14.231Z,11.71
2019-04-22T05:06:43.168Z,11.17
2019-04-22T05:11:53.952Z,10.49
2019-04-22T05:14:21.967Z,10.24
2019-04-22T05:16:54.828Z,10.05
2019-04-22T05:19:26.208Z,9.87
2019-04-22T05:21:58.027Z,9.73
2019-04-22T05:24:31.402Z,9.59
2019-04-22T05:27:10.635Z,9.47
2019-04-22T05:29:56.564Z,9.36
2019-04-22T05:32:09.293Z,9.25
2019-04-22T05:34:47.891Z,9.16
2019-04-22T05:37:20.766Z,9.07
2019-04-22T05:39:54.504Z,9.04
2019-04-22T05:42:17.829Z,8.98
2019-04-22T05:44:54.919Z,8.97
2019-04-22T05:47:28.199Z,8.91
2019-04-22T05:50:04.954Z,8.88
2019-04-22T05:52:42.050Z,8.86
2019-04-22T05:55:15.071Z,8.84
2019-04-22T05:57:51.094Z,8.84
2019-04-22T06:00:36.904Z,8.82
2019-04-22T06:02:56.881Z,8.82
2019-04-22T06:08:04.086Z,8.84
2019-04-22T06:13:13.952Z,8.90
2019-04-22T06:15:42.851Z,8.91
2019-04-22T06:18:23.901Z,8.92
2019-04-22T06:21:00.529Z,8.97
2019-04-22T06:23:41.736Z,9.00
2019-04-22T06:28:47.207Z,9.05
2019-04-22T06:31:16.135Z,9.09
2019-04-22T06:33:48.400Z,12.74
2019-04-22T06:36:23.319Z,16.93
2019-04-22T06:38:55.200Z,15.94
2019-04-22T06:41:28.384Z,14.52
2019-04-22T06:44:08.673Z,13.65
2019-04-22T06:46:36.728Z,13.08
2019-04-22T06:49:11.090Z,12.73
2019-04-22T06:51:37.637Z,12.49
2019-04-22T06:54:17.622Z,12.26
2019-04-22T06:56:49.207Z,12.08
2019-04-22T06:59:19.100Z,11.93
2019-04-22T07:04:31.751Z,11.70
2019-04-22T07:07:08.083Z,11.60
2019-04-22T07:09:41.452Z,11.50
2019-04-22T07:12:11.705Z,11.43
2019-04-22T07:14:50.461Z,11.41
2019-04-22T07:17:22.126Z,11.43
2019-04-22T07:19:48.212Z,11.41
2019-04-22T07:22:39.761Z,11.40
2019-04-22T07:24:59.054Z,11.38
2019-04-22T07:27:34.625Z,11.37
2019-04-22T07:33:06.199Z,11.40
2019-04-22T07:35:22.553Z,11.41
2019-04-22T07:38:06.191Z,11.43
2019-04-22T07:40:29.101Z,11.47
2019-04-22T07:42:57.106Z,11.47
2019-04-22T07:45:29.546Z,11.48
2019-04-22T07:48:15.250Z,11.47
2019-04-22T07:50:50.615Z,11.50
2019-04-22T07:53:10.638Z,11.47
2019-04-22T07:55:45.375Z,11.41
2019-04-22T07:58:22.981Z,11.43
2019-04-22T08:00:55.662Z,11.43
2019-04-22T08:03:29.361Z,11.41
2019-04-22T08:06:05.390Z,11.41
2019-04-22T08:08:33.962Z,11.44
2019-04-22T08:11:21.941Z,11.43
2019-04-22T08:13:42.560Z,11.51
2019-04-22T08:16:19.849Z,11.58
2019-04-22T08:18:47.524Z,11.71
2019-04-22T08:21:16.661Z,11.84
2019-04-22T08:23:56.936Z,12.02
2019-04-22T08:26:27.504Z,12.19
2019-04-22T08:29:06.794Z,12.36
2019-04-22T08:31:41.723Z,12.53
2019-04-22T08:34:13.702Z,12.75
2019-04-22T08:36:54.047Z,12.94
2019-04-22T08:39:20.165Z,13.08
2019-04-22T08:41:43.404Z,13.24
2019-04-22T08:44:27.589Z,13.39
2019-04-22T08:49:37.493Z,13.67
2019-04-22T08:52:08.805Z,13.80
2019-04-22T08:54:37.299Z,13.93
2019-04-22T08:57:10.587Z,14.07
2019-04-22T08:59:48.752Z,14.17
2019-04-22T09:04:48.327Z,14.34
2019-04-22T09:07:30.304Z,14.40
2019-04-22T09:09:55.415Z,14.47
2019-04-22T09:12:49.602Z,14.55
2019-04-22T09:15:07.716Z,14.65
2019-04-22T09:17:39.903Z,14.74
2019-04-22T09:20:15.085Z,14.85
2019-04-22T09:22:48.678Z,14.98
2019-04-22T09:25:17.203Z,15.07
2019-04-22T09:28:07.334Z,15.16
2019-04-22T09:30:37.394Z,15.23
2019-04-22T09:33:08.191Z,15.33
2019-04-22T09:35:41.495Z,15.42
2019-04-22T09:43:18.413Z,15.73
2019-04-22T09:45:47.920Z,15.78
2019-04-22T09:48:33.174Z,15.84
2019-04-22T09:53:41.709Z,15.89
2019-04-22T09:56:03.931Z,15.88
2019-04-22T09:58:40.035Z,15.88
2019-04-22T10:01:24.280Z,15.88
2019-04-22T10:06:29.419Z,15.81
2019-04-22T10:09:13.123Z,15.78
2019-04-22T10:11:32.600Z,15.71
2019-04-22T10:14:05.548Z,15.64
2019-04-22T10:19:11.033Z,15.46
2019-04-22T10:21:57.295Z,15.37
2019-04-22T10:24:30.108Z,15.29
2019-04-22T10:26:51.638Z,15.22
2019-04-22T10:29:28.901Z,15.13
2019-04-22T10:32:05.589Z,15.05
2019-04-22T10:34:23.547Z,14.99
2019-04-22T10:36:50.988Z,14.92
2019-04-22T10:39:18.372Z,14.92
2019-04-22T10:41:50.639Z,14.91
2019-04-22T10:44:23.633Z,14.86
2019-04-22T10:46:56.097Z,14.88
2019-04-22T10:49:28.777Z,14.86
2019-04-22T10:52:00.685Z,14.81
2019-04-22T10:54:33.631Z,14.79
2019-04-22T10:57:06.708Z,14.78
2019-04-22T10:59:38.634Z,14.76
2019-04-22T11:02:11.590Z,14.76
2019-04-22T11:04:43.963Z,14.74
2019-04-22T11:07:17.378Z,14.75
2019-04-22T11:09:59.064Z,14.75
2019-04-22T11:12:28.011Z,14.79
2019-04-22T11:14:58.205Z,14.79
2019-04-22T11:17:31.424Z,14.82
2019-04-22T11:20:03.818Z,14.83
2019-04-22T11:22:37.364Z,14.86
2019-04-22T11:25:09.838Z,14.92
2019-04-22T11:27:44.188Z,14.96
2019-04-22T11:30:19.998Z,14.99
2019-04-22T11:32:50.746Z,15.03
2019-04-22T11:35:23.686Z,15.09
2019-04-22T11:37:56.838Z,15.16
2019-04-22T11:40:37.140Z,15.26
2019-04-22T11:43:03.906Z,15.32
2019-04-22T11:45:37.115Z,15.46
2019-04-22T11:48:11.059Z,15.63
2019-04-22T11:50:43.966Z,15.74
2019-04-22T11:53:16.680Z,15.84
2019-04-22T11:55:49.029Z,15.88
2019-04-22T11:58:21.247Z,15.96
2019-04-22T12:00:53.813Z,16.05
2019-04-22T12:03:26.907Z,16.15
2019-04-22T12:06:01.874Z,16.26
2019-04-22T12:08:34.116Z,16.33
2019-04-22T12:11:07.906Z,16.43
2019-04-22T12:13:39.931Z,16.53
2019-04-22T12:16:11.950Z,16.60
2019-04-22T12:18:44.969Z,16.78
2019-04-22T12:21:17.152Z,17.01
2019-04-22T12:23:50.932Z,17.32
2019-04-22T12:26:24.949Z,17.68
2019-04-22T12:28:57.273Z,18.02
2019-04-22T12:31:29.397Z,18.43
2019-04-22T12:34:01.592Z,18.78
2019-04-22T12:36:33.667Z,19.13
2019-04-22T12:39:11.542Z,19.49
2019-04-22T12:41:44.323Z,19.87
2019-04-22T12:44:18.077Z,20.25
2019-04-22T12:46:50.333Z,20.64
2019-04-22T12:49:22.549Z,21.01
2019-04-22T12:51:54.814Z,21.41
2019-04-22T12:54:26.967Z,21.78
2019-04-22T12:56:59.766Z,22.19
2019-04-22T12:59:31.979Z,22.56
2019-04-22T13:02:04.974Z,22.91
2019-04-22T13:04:38.399Z,23.32
2019-04-22T13:07:11.536Z,23.75
2019-04-22T13:09:43.553Z,24.19
2019-04-22T13:12:15.455Z,24.60
2019-04-22T13:14:48.720Z,25.02
2019-04-22T13:17:20.946Z,25.21
2019-04-22T13:19:54.092Z,25.47
2019-04-22T13:22:27.037Z,25.85
2019-04-22T13:24:59.716Z,26.28
2019-04-22T13:27:33.020Z,26.72
2019-04-22T13:30:08.290Z,27.16
2019-04-22T13:32:40.663Z,27.34
2019-04-22T13:35:15.372Z,27.31
2019-04-22T13:37:48.781Z,27.54
2019-04-22T13:40:21.336Z,27.72
2019-04-22T13:42:53.532Z,28.05
2019-04-22T13:45:25.787Z,28.44
2019-04-22T13:48:16.671Z,28.81
2019-04-22T13:56:05.602Z,29.99
2019-04-22T13:58:29.121Z,30.37
2019-04-22T14:00:49.267Z,30.51
2019-04-22T14:03:26.799Z,30.64
2019-04-22T14:06:02.623Z,30.84
2019-04-22T14:08:35.351Z,31.16
2019-04-22T14:11:16.922Z,31.50
2019-04-22T14:13:41.900Z,31.84
2019-04-22T14:16:15.326Z,32.17
2019-04-22T14:18:47.750Z,32.30
2019-04-22T14:21:21.049Z,32.04
2019-04-22T14:23:54.099Z,32.14
2019-04-22T14:26:27.108Z,32.11
2019-04-22T14:28:59.963Z,32.41
2019-04-22T14:31:32.849Z,32.69
2019-04-22T14:34:07.326Z,33.04
2019-04-22T14:36:39.297Z,33.34
2019-04-22T14:39:12.292Z,33.62
2019-04-22T14:42:00.820Z,33.90
2019-04-22T14:47:15.775Z,34.41
2019-04-22T14:49:47.472Z,34.62
2019-04-22T14:52:21.262Z,34.73
2019-04-22T14:54:48.363Z,34.91
2019-04-22T14:57:07.322Z,35.12
2019-04-22T14:59:39.941Z,35.30
2019-04-22T15:02:13.955Z,35.53
2019-04-22T15:04:45.938Z,35.76
2019-04-22T15:07:19.084Z,36.01
2019-04-22T15:09:52.228Z,36.20
2019-04-22T15:12:31.829Z,36.15
2019-04-22T15:14:59.716Z,36.05
2019-04-22T15:17:38.780Z,36.00
2019-04-22T15:20:29.906Z,36.01
2019-04-22T15:23:02.393Z,36.23
2019-04-22T15:25:34.885Z,36.38
2019-04-22T15:28:06.964Z,36.54
2019-04-22T15:30:39.388Z,36.68
2019-04-22T15:33:11.785Z,36.82
2019-04-22T15:35:45.104Z,36.99
2019-04-22T15:38:17.746Z,37.20
2019-04-22T15:40:50.633Z,37.43
2019-04-22T15:43:24.211Z,37.60
2019-04-22T15:45:57.811Z,37.50
2019-04-22T15:48:32.236Z,37.13
2019-04-22T15:51:03.001Z,36.66
2019-04-22T15:53:35.784Z,36.45
2019-04-22T15:56:08.522Z,35.77
2019-04-22T15:58:41.893Z,35.32
2019-04-22T16:01:21.764Z,35.30
2019-04-22T16:03:47.409Z,35.44
2019-04-22T16:06:19.970Z,35.56
2019-04-22T16:08:52.144Z,35.72
2019-04-22T16:11:24.172Z,35.85
2019-04-22T16:13:56.721Z,35.95
2019-04-22T16:16:28.673Z,36.03
2019-04-22T16:19:00.701Z,36.05
2019-04-22T16:21:45.482Z,36.10
2019-04-22T16:24:11.897Z,36.18
2019-04-22T16:26:46.574Z,36.24
2019-04-22T16:29:19.205Z,36.01
2019-04-22T16:31:53.428Z,35.37
2019-04-22T16:34:25.425Z,34.81
2019-04-22T16:36:58.632Z,34.54
2019-04-22T16:39:32.899Z,34.28
2019-04-22T16:42:05.133Z,34.08
2019-04-22T16:44:38.701Z,33.87
2019-04-22T16:47:10.640Z,33.64
2019-04-22T16:49:43.693Z,33.33
2019-04-22T16:52:16.260Z,32.72
2019-04-22T16:54:48.537Z,32.00
2019-04-22T16:57:21.636Z,31.26
2019-04-22T16:59:54.890Z,30.54
2019-04-22T17:02:47.049Z,29.88
2019-04-22T17:05:36.036Z,29.17
2019-04-22T17:08:08.301Z,28.49
2019-04-22T17:10:40.268Z,27.93
2019-04-22T17:13:19.228Z,27.41
2019-04-22T17:15:47.274Z,26.86
2019-04-22T17:18:19.450Z,26.32
2019-04-22T17:20:52.871Z,25.81
2019-04-22T17:23:25.521Z,25.32
2019-04-22T17:25:58.633Z,24.88
2019-04-22T17:28:31.315Z,24.41
2019-04-22T17:31:04.549Z,24.04
2019-04-22T17:33:37.140Z,23.76
2019-04-22T17:36:09.495Z,23.45
2019-04-22T17:38:52.030Z,23.07
2019-04-22T17:41:24.651Z,22.68
2019-04-22T17:44:16.971Z,22.29
2019-04-22T17:46:40.245Z,21.92
2019-04-22T17:49:34.049Z,21.58
2019-04-22T17:52:21.038Z,21.24
2019-04-22T17:54:50.438Z,20.87
2019-04-22T17:57:23.961Z,20.52
2019-04-22T17:59:55.193Z,20.24
2019-04-22T18:02:26.860Z,19.94
2019-04-22T18:04:51.788Z,19.64
2019-04-22T18:07:41.290Z,19.35
2019-04-22T18:10:27.522Z,19.09
2019-04-22T18:12:53.135Z,18.86
2019-04-22T18:15:17.851Z,18.63
2019-04-22T18:18:03.656Z,18.40
2019-04-22T18:20:25.472Z,18.13
2019-04-22T18:22:54.813Z,17.90
2019-04-22T18:25:33.933Z,17.72
2019-04-22T18:28:13.505Z,17.52
2019-04-22T18:30:35.171Z,17.32
2019-04-22T18:33:20.831Z,17.14
2019-04-22T18:35:44.516Z,16.97
2019-04-22T18:38:34.679Z,16.80
2019-04-22T18:40:55.983Z,16.66
2019-04-22T18:43:32.941Z,16.50
2019-04-22T18:46:11.184Z,16.36
2019-04-22T18:48:38.913Z,16.22
2019-04-22T18:51:24.435Z,16.11
2019-04-22T18:53:54.098Z,15.95
2019-04-22T18:56:25.405Z,15.84
2019-04-22T18:58:53.828Z,15.73
2019-04-22T19:01:17.743Z,15.60
2019-04-22T19:04:01.679Z,15.47
2019-04-22T19:06:46.130Z,15.39
2019-04-22T19:09:20.269Z,15.30
2019-04-22T19:12:06.326Z,15.19
2019-04-22T19:14:30.053Z,15.07
2019-04-22T19:17:10.861Z,15.02
2019-04-22T19:22:06.709Z,14.82
2019-04-22T19:24:39.507Z,14.74
2019-04-22T19:27:18.752Z,14.64
2019-04-22T19:29:54.737Z,14.59
2019-04-22T19:32:23.013Z,14.52
2019-04-22T19:34:55.553Z,14.42
2019-04-22T19:37:27.731Z,14.35
2019-04-22T19:40:11.700Z,14.30
2019-04-22T19:42:49.602Z,14.24
2019-04-22T19:45:09.247Z,14.17
2019-04-22T19:47:53.564Z,14.08
2019-04-22T19:50:25.563Z,14.03
2019-04-22T19:53:02.020Z,13.97
2019-04-22T19:55:33.385Z,13.89
2019-04-22T19:58:04.124Z,13.87
2019-04-22T20:00:45.978Z,13.76
2019-04-22T20:03:36.451Z,13.72
2019-04-22T20:06:22.194Z,13.66
2019-04-22T20:08:59.712Z,13.59
2019-04-22T20:11:34.095Z,13.57
2019-04-22T20:14:10.964Z,13.49
2019-04-22T20:16:41.201Z,13.45
2019-04-22T20:19:23.573Z,13.42
2019-04-22T20:21:47.825Z,13.36
2019-04-22T20:24:11.719Z,13.31
2019-04-22T20:26:56.462Z,13.26
2019-04-22T20:29:35.262Z,13.19
2019-04-22T20:32:05.546Z,13.18
2019-04-22T20:34:41.785Z,13.14
2019-04-22T20:37:18.672Z,13.10
2019-04-22T20:39:49.109Z,13.05
2019-04-22T20:42:33.140Z,12.98
2019-04-22T20:44:52.125Z,12.97
2019-04-22T20:47:19.174Z,12.93
2019-04-22T20:50:02.259Z,12.88
2019-04-22T20:52:45.103Z,12.84
2019-04-22T20:55:02.637Z,12.81
2019-04-22T20:57:40.304Z,12.75
2019-04-22T21:00:11.715Z,12.73
2019-04-22T21:02:39.067Z,12.67
2019-04-22T21:05:14.560Z,12.63
2019-04-22T21:07:57.751Z,12.62
2019-04-22T21:10:22.498Z,12.54
2019-04-22T21:13:00.168Z,12.50
2019-04-22T21:15:39.572Z,12.49
2019-04-22T21:18:05.303Z,12.42
2019-04-22T21:20:43.134Z,12.40
2019-04-22T21:23:16.568Z,12.35
2019-04-22T21:25:39.569Z,12.32
2019-04-22T21:28:25.906Z,12.26
2019-04-22T21:30:52.048Z,12.26
2019-04-22T21:33:19.456Z,12.19
2019-04-22T21:36:16.759Z,12.18
2019-04-22T21:38:40.361Z,12.15
2019-04-22T21:41:09.895Z,12.12
2019-04-22T21:43:50.044Z,12.09
2019-04-22T21:46:19.278Z,12.03
2019-04-22T21:48:54.400Z,12.02
2019-04-22T21:51:31.670Z,11.98
2019-04-22T21:54:04.031Z,11.92
2019-04-22T21:57:04.420Z,11.89
2019-04-22T21:59:12.435Z,11.86
2019-04-22T22:04:20.667Z,11.81
2019-04-22T22:06:42.477Z,11.77
2019-04-22T22:09:31.238Z,11.71
2019-04-22T22:11:58.917Z,11.68
2019-04-22T22:14:36.738Z,11.68
2019-04-22T22:17:01.932Z,11.61
2019-04-22T22:19:43.571Z,11.55
2019-04-22T22:22:39.483Z,11.54
2019-04-22T22:24:50.141Z,11.50
2019-04-22T22:27:25.300Z,11.46
2019-04-22T22:30:15.118Z,11.46
2019-04-22T22:32:33.678Z,11.41
2019-04-22T22:35:03.001Z,11.37
2019-04-22T22:37:28.190Z,11.36
2019-04-22T22:40:00.936Z,11.30
2019-04-22T22:42:31.303Z,11.26
2019-04-22T22:45:07.774Z,11.26
2019-04-22T22:47:53.963Z,11.19
2019-04-22T22:50:28.499Z,11.17
2019-04-22T22:55:33.181Z,11.11
2019-04-22T22:58:10.403Z,11.04
2019-04-22T23:00:39.441Z,11.02
2019-04-22T23:03:46.602Z,11.03
2019-04-22T23:06:07.307Z,10.95
2019-04-22T23:11:05.233Z,10.89
2019-04-22T23:13:40.439Z,10.87
2019-04-22T23:16:00.478Z,10.82
2019-04-22T23:18:21.806Z,10.79
2019-04-22T23:20:55.772Z,10.78
2019-04-22T23:23:48.915Z,10.72
2019-04-22T23:26:48.153Z,10.68
2019-04-22T23:29:11.400Z,10.65
2019-04-22T23:31:46.896Z,10.62
2019-04-22T23:34:25.213Z,10.58
2019-04-22T23:37:16.678Z,10.53
2019-04-22T23:39:58.405Z,10.51
2019-04-22T23:42:27.348Z,10.48
2019-04-22T23:45:04.061Z,10.44
2019-04-22T23:47:35.136Z,10.42
2019-04-22T23:50:24.335Z,10.39
2019-04-22T23:52:53.047Z,10.32
2019-04-22T23:55:29.796Z,10.31
2019-04-22T23:58:07.983Z,10.29
